Terminal Aerodrome Forecast
Issued by NWS

Home | Current Version | Previous Version | Text Only | Print | Product List | Glossary On
Versions: 1 2 3 4 5 6 7 8 9 10 11 12 13 14 15 16 17
000
FTUS42 KTAE 012332
TAFVLD
TAF
KVLD 012332Z 0200/0224 VRB05KT P6SM VCSH SCT050
     FM020100 VRB03KT P6SM SCT250
     FM020900 VRB03KT 5SM BR SCT250
     FM021300 26006KT P6SM FEW040
     FM021700 26010KT P6SM VCTS SCT040CB=

USA.gov is the U.S. government's official web portal to all federal, state and local government web resources and services.